sensor_id;sensor_type;location;lat;lon;timestamp;temperature;humidity
35645;DHT22;21764;52.042;6.830;2023-03-23T00:02:41;11.40;99.90
35645;DHT22;21764;52.042;6.830;2023-03-23T00:07:41;11.40;99.90
35645;DHT22;21764;52.042;6.830;2023-03-23T00:12:45;11.40;99.90
35645;DHT22;21764;52.042;6.830;2023-03-23T00:17:49;11.40;99.90
35645;DHT22;21764;52.042;6.830;2023-03-23T00:22:51;11.40;99.90
35645;DHT22;21764;52.042;6.830;2023-03-23T00:27:52;11.40;99.90
35645;DHT22;21764;52.042;6.830;2023-03-23T00:32:52;11.40;99.90
35645;DHT22;21764;52.042;6.830;2023-03-23T00:37:53;11.40;99.90
35645;DHT22;21764;52.042;6.830;2023-03-23T00:42:55;11.40;99.90
35645;DHT22;21764;52.042;6.830;2023-03-23T00:47:56;11.40;99.90
35645;DHT22;21764;52.042;6.830;2023-03-23T00:53:02;11.40;99.90
35645;DHT22;21764;52.042;6.830;2023-03-23T00:58:02;11.50;99.90
35645;DHT22;21764;52.042;6.830;2023-03-23T01:03:04;11.40;99.90
35645;DHT22;21764;52.042;6.830;2023-03-23T01:08:06;11.50;99.90
35645;DHT22;21764;52.042;6.830;2023-03-23T01:13:07;11.60;99.90
35645;DHT22;21764;52.042;6.830;2023-03-23T01:18:08;11.60;99.90
35645;DHT22;21764;52.042;6.830;2023-03-23T01:23:09;11.60;99.90
35645;DHT22;21764;52.042;6.830;2023-03-23T01:28:10;11.60;99.90
35645;DHT22;21764;52.042;6.830;2023-03-23T01:33:12;11.60;99.90
35645;DHT22;21764;52.042;6.830;2023-03-23T01:38:13;11.70;99.90
35645;DHT22;21764;52.042;6.830;2023-03-23T01:43:15;11.70;99.90
35645;DHT22;21764;52.042;6.830;2023-03-23T01:53:27;11.80;99.90
35645;DHT22;21764;52.042;6.830;2023-03-23T01:58:31;11.90;99.90
35645;DHT22;21764;52.042;6.830;2023-03-23T02:03:35;11.80;99.90
35645;DHT22;21764;52.042;6.830;2023-03-23T02:08:38;11.80;99.90
35645;DHT22;21764;52.042;6.830;2023-03-23T02:13:39;11.80;99.90
35645;DHT22;21764;52.042;6.830;2023-03-23T02:34:12;11.50;99.90
35645;DHT22;21764;52.042;6.830;2023-03-23T02:39:31;11.40;99.90
35645;DHT22;21764;52.042;6.830;2023-03-23T02:44:35;11.40;99.90
35645;DHT22;21764;52.042;6.830;2023-03-23T02:49:37;11.40;99.90
35645;DHT22;21764;52.042;6.830;2023-03-23T02:54:42;11.40;99.90
35645;DHT22;21764;52.042;6.830;2023-03-23T02:59:45;11.40;99.90
35645;DHT22;21764;52.042;6.830;2023-03-23T03:04:51;11.40;99.90
35645;DHT22;21764;52.042;6.830;2023-03-23T03:09:59;11.40;99.90
35645;DHT22;21764;52.042;6.830;2023-03-23T03:20:24;11.50;99.90
35645;DHT22;21764;52.042;6.830;2023-03-23T03:25:26;11.50;99.90
35645;DHT22;21764;52.042;6.830;2023-03-23T03:30:30;11.60;99.90
35645;DHT22;21764;52.042;6.830;2023-03-23T03:35:36;11.60;99.90
35645;DHT22;21764;52.042;6.830;2023-03-23T03:40:37;11.60;99.90
35645;DHT22;21764;52.042;6.830;2023-03-23T03:45:38;11.70;99.90
35645;DHT22;21764;52.042;6.830;2023-03-23T03:50:39;11.80;99.90
35645;DHT22;21764;52.042;6.830;2023-03-23T03:55:40;11.80;99.90
35645;DHT22;21764;52.042;6.830;2023-03-23T04:00:45;11.90;99.90
35645;DHT22;21764;52.042;6.830;2023-03-23T04:05:48;11.90;99.90
35645;DHT22;21764;52.042;6.830;2023-03-23T04:10:49;11.80;99.90
35645;DHT22;21764;52.042;6.830;2023-03-23T04:15:50;11.80;99.90
35645;DHT22;21764;52.042;6.830;2023-03-23T04:20:51;11.80;99.90
35645;DHT22;21764;52.042;6.830;2023-03-23T04:25:52;11.70;99.90
35645;DHT22;21764;52.042;6.830;2023-03-23T04:30:57;11.60;99.90
35645;DHT22;21764;52.042;6.830;2023-03-23T04:36:01;11.70;99.90
35645;DHT22;21764;52.042;6.830;2023-03-23T04:41:02;11.80;99.90
35645;DHT22;21764;52.042;6.830;2023-03-23T04:46:04;11.80;99.90
35645;DHT22;21764;52.042;6.830;2023-03-23T04:51:08;11.90;99.90
35645;DHT22;21764;52.042;6.830;2023-03-23T04:56:09;11.90;99.90
35645;DHT22;21764;52.042;6.830;2023-03-23T05:01:10;11.90;99.90
35645;DHT22;21764;52.042;6.830;2023-03-23T05:06:14;11.90;99.90
35645;DHT22;21764;52.042;6.830;2023-03-23T05:11:14;11.90;99.90
35645;DHT22;21764;52.042;6.830;2023-03-23T05:16:15;11.90;99.90
35645;DHT22;21764;52.042;6.830;2023-03-23T05:21:16;11.90;99.90
35645;DHT22;21764;52.042;6.830;2023-03-23T05:26:16;12.00;99.90
35645;DHT22;21764;52.042;6.830;2023-03-23T05:31:17;12.00;99.90
35645;DHT22;21764;52.042;6.830;2023-03-23T05:36:18;12.00;99.90
35645;DHT22;21764;52.042;6.830;2023-03-23T05:41:19;12.00;99.90
35645;DHT22;21764;52.042;6.830;2023-03-23T05:46:19;12.00;99.90
35645;DHT22;21764;52.042;6.830;2023-03-23T05:51:20;12.00;99.90
35645;DHT22;21764;52.042;6.830;2023-03-23T05:56:21;12.00;99.90
35645;DHT22;21764;52.042;6.830;2023-03-23T06:01:22;12.00;99.90
35645;DHT22;21764;52.042;6.830;2023-03-23T06:06:23;12.00;99.90
35645;DHT22;21764;52.042;6.830;2023-03-23T06:11:25;12.00;99.90
35645;DHT22;21764;52.042;6.830;2023-03-23T06:16:26;12.00;99.90
35645;DHT22;21764;52.042;6.830;2023-03-23T06:21:26;12.00;99.90
35645;DHT22;21764;52.042;6.830;2023-03-23T06:26:31;12.10;99.90
35645;DHT22;21764;52.042;6.830;2023-03-23T06:31:33;12.20;99.90
35645;DHT22;21764;52.042;6.830;2023-03-23T06:36:35;12.30;99.90
35645;DHT22;21764;52.042;6.830;2023-03-23T06:41:36;12.40;99.90
35645;DHT22;21764;52.042;6.830;2023-03-23T06:46:37;12.50;99.90
35645;DHT22;21764;52.042;6.830;2023-03-23T06:51:37;12.80;99.90
35645;DHT22;21764;52.042;6.830;2023-03-23T06:56:38;13.30;99.90
35645;DHT22;21764;52.042;6.830;2023-03-23T07:01:39;13.80;99.90
35645;DHT22;21764;52.042;6.830;2023-03-23T07:06:40;14.30;99.90
35645;DHT22;21764;52.042;6.830;2023-03-23T07:11:40;13.90;99.90
35645;DHT22;21764;52.042;6.830;2023-03-23T07:16:41;13.90;99.90
35645;DHT22;21764;52.042;6.830;2023-03-23T07:21:42;13.60;99.90
35645;DHT22;21764;52.042;6.830;2023-03-23T07:26:43;13.10;99.90
35645;DHT22;21764;52.042;6.830;2023-03-23T07:31:43;13.20;99.90
35645;DHT22;21764;52.042;6.830;2023-03-23T07:36:45;13.30;99.90
35645;DHT22;21764;52.042;6.830;2023-03-23T07:41:46;13.30;99.90
35645;DHT22;21764;52.042;6.830;2023-03-23T07:46:47;13.30;99.90
35645;DHT22;21764;52.042;6.830;2023-03-23T07:51:48;13.40;99.90
35645;DHT22;21764;52.042;6.830;2023-03-23T07:56:49;13.20;99.90
35645;DHT22;21764;52.042;6.830;2023-03-23T08:01:50;13.20;99.90
35645;DHT22;21764;52.042;6.830;2023-03-23T08:06:50;13.00;99.90
35645;DHT22;21764;52.042;6.830;2023-03-23T08:11:51;13.20;99.90
35645;DHT22;21764;52.042;6.830;2023-03-23T08:16:52;12.90;99.90
35645;DHT22;21764;52.042;6.830;2023-03-23T08:21:53;12.80;99.90
35645;DHT22;21764;52.042;6.830;2023-03-23T08:26:54;12.50;99.90
35645;DHT22;21764;52.042;6.830;2023-03-23T08:31:54;12.20;99.90
35645;DHT22;21764;52.042;6.830;2023-03-23T08:36:57;12.00;99.90
35645;DHT22;21764;52.042;6.830;2023-03-23T08:41:58;12.00;99.90
35645;DHT22;21764;52.042;6.830;2023-03-23T08:46:58;11.50;99.90
35645;DHT22;21764;52.042;6.830;2023-03-23T08:52:03;11.20;99.90
35645;DHT22;21764;52.042;6.830;2023-03-23T08:57:04;11.30;99.90
35645;DHT22;21764;52.042;6.830;2023-03-23T09:02:05;11.70;99.90
35645;DHT22;21764;52.042;6.830;2023-03-23T09:07:07;12.40;99.90
35645;DHT22;21764;52.042;6.830;2023-03-23T09:12:08;12.60;99.90
35645;DHT22;21764;52.042;6.830;2023-03-23T09:17:10;12.60;99.90
35645;DHT22;21764;52.042;6.830;2023-03-23T09:22:11;12.70;99.90
35645;DHT22;21764;52.042;6.830;2023-03-23T09:27:12;13.10;99.90
35645;DHT22;21764;52.042;6.830;2023-03-23T09:32:12;13.10;99.90
35645;DHT22;21764;52.042;6.830;2023-03-23T09:37:13;12.70;99.90
35645;DHT22;21764;52.042;6.830;2023-03-23T09:52:56;12.90;99.90
35645;DHT22;21764;52.042;6.830;2023-03-23T09:58:24;13.50;99.90
35645;DHT22;21764;52.042;6.830;2023-03-23T10:03:31;13.70;99.90
35645;DHT22;21764;52.042;6.830;2023-03-23T10:08:33;13.70;99.90
35645;DHT22;21764;52.042;6.830;2023-03-23T10:24:10;13.60;99.90
35645;DHT22;21764;52.042;6.830;2023-03-23T10:35:11;17.70;99.90
35645;DHT22;21764;52.042;6.830;2023-03-23T10:39:54;18.30;99.90
35645;DHT22;21764;52.042;6.830;2023-03-23T10:44:56;19.00;99.90
35645;DHT22;21764;52.042;6.830;2023-03-23T10:50:01;18.50;99.90
35645;DHT22;21764;52.042;6.830;2023-03-23T11:00:21;16.20;99.90
35645;DHT22;21764;52.042;6.830;2023-03-23T11:05:25;16.40;99.90
35645;DHT22;21764;52.042;6.830;2023-03-23T11:10:35;19.50;99.90
35645;DHT22;21764;52.042;6.830;2023-03-23T11:15:43;19.30;99.90
35645;DHT22;21764;52.042;6.830;2023-03-23T11:20:49;18.50;99.90
35645;DHT22;21764;52.042;6.830;2023-03-23T11:31:03;17.70;99.90
35645;DHT22;21764;52.042;6.830;2023-03-23T11:36:06;17.90;99.90
35645;DHT22;21764;52.042;6.830;2023-03-23T11:41:16;17.70;99.90
35645;DHT22;21764;52.042;6.830;2023-03-23T11:46:41;17.40;99.90
35645;DHT22;21764;52.042;6.830;2023-03-23T11:51:50;18.30;99.90
35645;DHT22;21764;52.042;6.830;2023-03-23T11:56:52;18.20;99.90
35645;DHT22;21764;52.042;6.830;2023-03-23T12:02:09;18.20;99.90
35645;DHT22;21764;52.042;6.830;2023-03-23T12:13:02;17.50;99.90
35645;DHT22;21764;52.042;6.830;2023-03-23T12:23:25;16.40;99.90
35645;DHT22;21764;52.042;6.830;2023-03-23T12:28:44;16.30;99.90
35645;DHT22;21764;52.042;6.830;2023-03-23T12:39:31;17.00;99.90
35645;DHT22;21764;52.042;6.830;2023-03-23T12:44:54;17.30;99.90
35645;DHT22;21764;52.042;6.830;2023-03-23T12:55:39;16.70;99.90
35645;DHT22;21764;52.042;6.830;2023-03-23T13:11:38;16.00;99.90
35645;DHT22;21764;52.042;6.830;2023-03-23T13:17:09;15.80;99.90
35645;DHT22;21764;52.042;6.830;2023-03-23T13:27:26;16.40;99.90
35645;DHT22;21764;52.042;6.830;2023-03-23T13:32:40;16.40;99.90
35645;DHT22;21764;52.042;6.830;2023-03-23T13:37:49;16.10;99.90
35645;DHT22;21764;52.042;6.830;2023-03-23T13:42:57;16.00;99.90
35645;DHT22;21764;52.042;6.830;2023-03-23T13:53:27;16.40;99.90
35645;DHT22;21764;52.042;6.830;2023-03-23T13:58:43;16.60;99.90
35645;DHT22;21764;52.042;6.830;2023-03-23T14:03:48;16.40;99.90
35645;DHT22;21764;52.042;6.830;2023-03-23T14:08:54;16.50;99.90
35645;DHT22;21764;52.042;6.830;2023-03-23T14:19:12;16.70;99.90
35645;DHT22;21764;52.042;6.830;2023-03-23T14:24:28;16.70;99.90
35645;DHT22;21764;52.042;6.830;2023-03-23T14:29:29;16.70;99.90
35645;DHT22;21764;52.042;6.830;2023-03-23T14:34:31;16.50;99.90
35645;DHT22;21764;52.042;6.830;2023-03-23T14:39:34;16.50;99.90
35645;DHT22;21764;52.042;6.830;2023-03-23T14:44:42;16.50;99.90
35645;DHT22;21764;52.042;6.830;2023-03-23T14:49:44;16.20;99.90
35645;DHT22;21764;52.042;6.830;2023-03-23T14:54:45;15.80;99.90
35645;DHT22;21764;52.042;6.830;2023-03-23T14:59:47;15.60;99.90
35645;DHT22;21764;52.042;6.830;2023-03-23T15:04:55;15.60;99.90
35645;DHT22;21764;52.042;6.830;2023-03-23T15:09:58;15.80;99.90
35645;DHT22;21764;52.042;6.830;2023-03-23T15:15:02;15.50;99.90
35645;DHT22;21764;52.042;6.830;2023-03-23T15:20:19;15.50;99.90
35645;DHT22;21764;52.042;6.830;2023-03-23T15:25:24;15.00;99.90
35645;DHT22;21764;52.042;6.830;2023-03-23T15:30:33;14.60;99.90
35645;DHT22;21764;52.042;6.830;2023-03-23T15:35:37;14.40;99.90
35645;DHT22;21764;52.042;6.830;2023-03-23T15:40:38;14.70;99.90
35645;DHT22;21764;52.042;6.830;2023-03-23T15:45:39;14.80;99.90
35645;DHT22;21764;52.042;6.830;2023-03-23T15:50:51;15.10;99.90
35645;DHT22;21764;52.042;6.830;2023-03-23T15:55:52;15.40;99.90
35645;DHT22;21764;52.042;6.830;2023-03-23T16:00:53;15.10;99.90
35645;DHT22;21764;52.042;6.830;2023-03-23T16:05:55;14.60;99.90
35645;DHT22;21764;52.042;6.830;2023-03-23T16:10:56;14.20;99.90
35645;DHT22;21764;52.042;6.830;2023-03-23T16:15:57;13.80;99.90
35645;DHT22;21764;52.042;6.830;2023-03-23T16:20:58;13.90;99.90
35645;DHT22;21764;52.042;6.830;2023-03-23T16:25:59;14.30;99.90
35645;DHT22;21764;52.042;6.830;2023-03-23T16:30:59;14.10;99.90
35645;DHT22;21764;52.042;6.830;2023-03-23T16:36:00;13.90;99.90
35645;DHT22;21764;52.042;6.830;2023-03-23T16:41:01;13.60;99.90
35645;DHT22;21764;52.042;6.830;2023-03-23T16:46:03;13.70;99.90
35645;DHT22;21764;52.042;6.830;2023-03-23T16:51:03;14.10;99.90
35645;DHT22;21764;52.042;6.830;2023-03-23T16:56:04;14.00;99.90
35645;DHT22;21764;52.042;6.830;2023-03-23T17:01:05;13.80;99.90
35645;DHT22;21764;52.042;6.830;2023-03-23T17:06:06;13.80;99.90
35645;DHT22;21764;52.042;6.830;2023-03-23T17:11:08;13.70;99.90
35645;DHT22;21764;52.042;6.830;2023-03-23T17:16:09;13.60;99.90
35645;DHT22;21764;52.042;6.830;2023-03-23T17:21:10;13.40;99.90
35645;DHT22;21764;52.042;6.830;2023-03-23T17:26:10;13.10;99.90
35645;DHT22;21764;52.042;6.830;2023-03-23T17:31:11;12.80;99.90
35645;DHT22;21764;52.042;6.830;2023-03-23T17:36:12;12.60;99.90
35645;DHT22;21764;52.042;6.830;2023-03-23T17:41:12;12.40;99.90
35645;DHT22;21764;52.042;6.830;2023-03-23T17:46:14;12.40;99.90
35645;DHT22;21764;52.042;6.830;2023-03-23T17:51:15;12.20;99.90
35645;DHT22;21764;52.042;6.830;2023-03-23T17:56:15;12.20;99.90
35645;DHT22;21764;52.042;6.830;2023-03-23T18:01:16;12.10;99.90
35645;DHT22;21764;52.042;6.830;2023-03-23T18:06:17;12.10;99.90
35645;DHT22;21764;52.042;6.830;2023-03-23T18:11:18;12.10;99.90
35645;DHT22;21764;52.042;6.830;2023-03-23T18:16:18;12.10;99.90
35645;DHT22;21764;52.042;6.830;2023-03-23T18:21:19;12.20;99.90
35645;DHT22;21764;52.042;6.830;2023-03-23T18:26:20;12.30;99.90
35645;DHT22;21764;52.042;6.830;2023-03-23T18:31:21;12.50;99.90
35645;DHT22;21764;52.042;6.830;2023-03-23T18:36:24;12.50;99.90
35645;DHT22;21764;52.042;6.830;2023-03-23T18:41:25;12.60;99.90
35645;DHT22;21764;52.042;6.830;2023-03-23T18:46:26;12.50;99.90
35645;DHT22;21764;52.042;6.830;2023-03-23T18:51:27;12.50;99.90
35645;DHT22;21764;52.042;6.830;2023-03-23T18:56:27;12.60;99.90
35645;DHT22;21764;52.042;6.830;2023-03-23T19:01:28;12.60;99.90
35645;DHT22;21764;52.042;6.830;2023-03-23T19:06:29;12.40;99.90
35645;DHT22;21764;52.042;6.830;2023-03-23T19:11:30;12.40;99.90
35645;DHT22;21764;52.042;6.830;2023-03-23T19:16:32;12.40;99.90
35645;DHT22;21764;52.042;6.830;2023-03-23T19:21:35;12.40;99.90
35645;DHT22;21764;52.042;6.830;2023-03-23T19:26:38;12.50;99.90
35645;DHT22;21764;52.042;6.830;2023-03-23T19:31:40;12.50;99.90
35645;DHT22;21764;52.042;6.830;2023-03-23T19:36:41;12.50;99.90
35645;DHT22;21764;52.042;6.830;2023-03-23T19:41:43;12.60;99.90
35645;DHT22;21764;52.042;6.830;2023-03-23T19:46:44;12.60;99.90
35645;DHT22;21764;52.042;6.830;2023-03-23T19:51:47;12.70;99.90
35645;DHT22;21764;52.042;6.830;2023-03-23T19:56:47;12.70;99.90
35645;DHT22;21764;52.042;6.830;2023-03-23T20:01:48;12.80;99.90
35645;DHT22;21764;52.042;6.830;2023-03-23T20:06:49;12.90;99.90
35645;DHT22;21764;52.042;6.830;2023-03-23T20:11:51;12.90;99.90
35645;DHT22;21764;52.042;6.830;2023-03-23T20:16:52;12.90;99.90
35645;DHT22;21764;52.042;6.830;2023-03-23T20:21:52;13.00;99.90
35645;DHT22;21764;52.042;6.830;2023-03-23T20:26:53;13.00;99.90
35645;DHT22;21764;52.042;6.830;2023-03-23T20:31:54;13.00;99.90
35645;DHT22;21764;52.042;6.830;2023-03-23T20:36:57;12.90;99.90
35645;DHT22;21764;52.042;6.830;2023-03-23T20:42:00;13.00;99.90
35645;DHT22;21764;52.042;6.830;2023-03-23T20:47:06;13.00;99.90
35645;DHT22;21764;52.042;6.830;2023-03-23T20:52:07;13.10;99.90
35645;DHT22;21764;52.042;6.830;2023-03-23T20:57:11;13.20;99.90
35645;DHT22;21764;52.042;6.830;2023-03-23T21:02:14;13.20;99.90
35645;DHT22;21764;52.042;6.830;2023-03-23T21:07:15;13.30;99.90
35645;DHT22;21764;52.042;6.830;2023-03-23T21:12:17;13.30;99.90
35645;DHT22;21764;52.042;6.830;2023-03-23T21:17:18;13.30;99.90
35645;DHT22;21764;52.042;6.830;2023-03-23T21:22:18;13.30;99.90
35645;DHT22;21764;52.042;6.830;2023-03-23T21:27:19;13.30;99.90
35645;DHT22;21764;52.042;6.830;2023-03-23T21:32:20;13.20;99.90
35645;DHT22;21764;52.042;6.830;2023-03-23T21:37:21;13.10;99.90
35645;DHT22;21764;52.042;6.830;2023-03-23T21:42:22;12.90;99.90
35645;DHT22;21764;52.042;6.830;2023-03-23T21:47:29;12.90;99.90
35645;DHT22;21764;52.042;6.830;2023-03-23T21:52:31;12.70;99.90
35645;DHT22;21764;52.042;6.830;2023-03-23T21:57:32;12.70;99.90
35645;DHT22;21764;52.042;6.830;2023-03-23T22:02:33;12.50;99.90
35645;DHT22;21764;52.042;6.830;2023-03-23T22:07:34;12.40;99.90
35645;DHT22;21764;52.042;6.830;2023-03-23T22:12:38;12.40;99.90
35645;DHT22;21764;52.042;6.830;2023-03-23T22:17:40;12.40;99.90
35645;DHT22;21764;52.042;6.830;2023-03-23T22:22:40;12.30;99.90
35645;DHT22;21764;52.042;6.830;2023-03-23T22:27:41;12.30;99.90
35645;DHT22;21764;52.042;6.830;2023-03-23T22:32:42;12.20;99.90
35645;DHT22;21764;52.042;6.830;2023-03-23T22:37:43;12.20;99.90
35645;DHT22;21764;52.042;6.830;2023-03-23T22:42:44;12.10;99.90
35645;DHT22;21764;52.042;6.830;2023-03-23T22:47:44;12.10;99.90
35645;DHT22;21764;52.042;6.830;2023-03-23T22:52:45;12.00;99.90
35645;DHT22;21764;52.042;6.830;2023-03-23T22:57:46;12.10;99.90
35645;DHT22;21764;52.042;6.830;2023-03-23T23:02:47;11.90;99.90
35645;DHT22;21764;52.042;6.830;2023-03-23T23:07:48;11.90;99.90
35645;DHT22;21764;52.042;6.830;2023-03-23T23:12:49;11.80;99.90
35645;DHT22;21764;52.042;6.830;2023-03-23T23:17:49;11.80;99.90
35645;DHT22;21764;52.042;6.830;2023-03-23T23:22:50;11.80;99.90
35645;DHT22;21764;52.042;6.830;2023-03-23T23:27:52;11.90;99.90
35645;DHT22;21764;52.042;6.830;2023-03-23T23:32:53;11.80;99.90
35645;DHT22;21764;52.042;6.830;2023-03-23T23:37:54;11.80;99.90
35645;DHT22;21764;52.042;6.830;2023-03-23T23:42:55;11.90;99.90
35645;DHT22;21764;52.042;6.830;2023-03-23T23:47:56;11.80;99.90
35645;DHT22;21764;52.042;6.830;2023-03-23T23:52:57;11.80;99.90
35645;DHT22;21764;52.042;6.830;2023-03-23T23:57:58;11.80;99.90
